Time;durP1;ratioP1;P1;durP2;ratioP2;P2;SDS_P1;SDS_P2;PMS_P1;PMS_P2;Temp;Humidity;BMP_temperature;BMP_pressure;BME280_temperature;BME280_humidity;BME280_pressure;Samples;Min_cycle;Max_cycle;Signal;HPM_P1;HPM_P2
2024/01/20 00:02:20;;;;;;;14.13;10.70;;;;;;;-0.93;66.48;95854.28;5016160;28;20237;-87
2024/01/20 00:04:55;;;;;;;14.17;10.63;;;;;;;-0.97;66.22;95847.03;5019140;28;20607;-87
2024/01/20 00:07:41;;;;;;;14.67;10.97;;;;;;;-0.94;66.08;95842.53;5017943;28;20257;-87
2024/01/20 00:10:11;;;;;;;14.17;10.70;;;;;;;-1.00;66.70;95840.44;5005797;28;20208;-87
2024/01/20 00:12:58;;;;;;;12.80;10.40;;;;;;;-1.04;66.19;95841.53;4989732;28;20737;-88
2024/01/20 00:15:29;;;;;;;13.40;10.10;;;;;;;-1.13;66.38;95847.19;4989343;28;20279;-87
2024/01/20 00:18:05;;;;;;;11.80;9.33;;;;;;;-1.16;66.69;95862.56;4988818;28;20207;-88
2024/01/20 00:20:39;;;;;;;10.63;8.40;;;;;;;-1.31;67.43;95884.53;4988433;28;20238;-87
2024/01/20 00:23:21;;;;;;;10.20;7.90;;;;;;;-1.31;67.35;95914.81;4989062;28;20223;-88
2024/01/20 00:25:56;;;;;;;8.83;7.07;;;;;;;-1.36;67.80;95921.09;4985855;28;20207;-88
2024/01/20 00:28:34;;;;;;;9.70;7.37;;;;;;;-1.28;67.67;95924.75;4989207;28;20202;-87
2024/01/20 00:31:20;;;;;;;10.90;7.50;;;;;;;-1.25;67.69;95927.09;4989459;28;20293;-87
2024/01/20 00:33:46;;;;;;;7.40;6.03;;;;;;;-1.21;67.48;95904.97;4988435;28;20693;-87
2024/01/20 00:36:23;;;;;;;9.03;6.13;;;;;;;-1.19;67.06;95903.16;4988677;28;20207;-88
2024/01/20 00:38:53;;;;;;;9.67;6.50;;;;;;;-1.31;67.49;95888.75;4973293;28;20198;-87
2024/01/20 00:41:25;;;;;;;8.07;6.60;;;;;;;-1.35;67.61;95893.22;4988413;28;20206;-87
2024/01/20 00:44:08;;;;;;;9.50;6.67;;;;;;;-1.35;67.46;95908.38;4988895;28;20223;-87
2024/01/20 00:46:42;;;;;;;9.70;6.90;;;;;;;-1.35;67.46;95900.81;4988650;28;20225;-87
2024/01/20 00:49:14;;;;;;;7.30;5.50;;;;;;;-1.31;67.08;95882.00;4996854;28;20195;-87
2024/01/20 00:51:50;;;;;;;6.33;5.13;;;;;;;-1.38;66.60;95860.59;5008603;28;20249;-87
2024/01/20 00:54:36;;;;;;;6.00;4.53;;;;;;;-1.41;66.23;95855.72;4997771;28;20191;-88
2024/01/20 00:57:03;;;;;;;6.30;4.67;;;;;;;-1.37;66.89;95869.78;5009736;28;20579;-87
2024/01/20 00:59:39;;;;;;;5.97;4.53;;;;;;;-1.43;66.73;95876.03;5001068;28;20286;-87
2024/01/20 01:02:57;;;;;;;6.00;4.23;;;;;;;-1.41;66.83;95869.16;4991974;28;20233;-87
2024/01/20 01:05:45;;;;;;;6.23;4.20;;;;;;;-1.36;66.49;95857.97;4932403;28;20213;-87
2024/01/20 01:08:24;;;;;;;5.60;3.60;;;;;;;-1.36;65.98;95830.19;4990850;28;20207;-86
2024/01/20 01:10:59;;;;;;;4.20;3.43;;;;;;;-1.35;65.56;95799.78;4992182;28;20567;-87
2024/01/20 01:13:35;;;;;;;3.70;3.03;;;;;;;-1.31;65.13;95780.16;4991830;28;20219;-87
2024/01/20 01:16:05;;;;;;;4.47;3.00;;;;;;;-1.29;64.87;95761.50;4991658;28;20665;-88
2024/01/20 01:18:41;;;;;;;4.87;3.10;;;;;;;-1.26;64.68;95763.81;4992002;28;20200;-87
2024/01/20 01:21:36;;;;;;;4.30;3.33;;;;;;;-1.23;64.66;95752.72;4991868;28;20758;-88
2024/01/20 01:24:11;;;;;;;3.47;3.17;;;;;;;-1.29;64.83;95741.28;4991639;28;20219;-87
2024/01/20 01:26:45;;;;;;;4.13;3.23;;;;;;;-1.36;64.55;95736.75;4991434;28;20265;-87
2024/01/20 01:29:16;;;;;;;3.83;3.10;;;;;;;-1.37;64.99;95752.81;4991740;28;20187;-87
2024/01/20 01:31:43;;;;;;;3.63;3.00;;;;;;;-1.50;64.91;95730.06;4991365;28;20226;-89
2024/01/20 01:34:16;;;;;;;4.43;2.70;;;;;;;-1.60;64.71;95724.00;4991637;28;20588;-88
2024/01/20 01:36:49;;;;;;;2.90;2.50;;;;;;;-1.66;64.54;95731.97;4991330;28;20236;-87
2024/01/20 01:39:23;;;;;;;2.80;2.30;;;;;;;-1.66;64.57;95731.97;4991915;28;20612;-86
2024/01/20 01:41:59;;;;;;;3.80;2.40;;;;;;;-1.61;64.59;95724.91;4991534;28;20277;-87
2024/01/20 01:44:34;;;;;;;2.60;2.40;;;;;;;-1.60;64.58;95711.38;4993027;28;20619;-88
2024/01/20 01:47:07;;;;;;;2.53;2.23;;;;;;;-1.66;64.33;95712.56;4992145;28;20203;-88
2024/01/20 01:49:42;;;;;;;2.83;2.20;;;;;;;-1.64;64.42;95720.84;4991168;28;20207;-87
2024/01/20 01:52:18;;;;;;;2.83;2.10;;;;;;;-1.63;64.62;95714.09;4993110;28;20600;-87
2024/01/20 01:54:51;;;;;;;2.93;2.57;;;;;;;-1.60;64.41;95716.44;5000605;28;20203;-88
2024/01/20 01:57:24;;;;;;;3.63;2.83;;;;;;;-1.59;64.43;95706.22;5009265;28;20210;-87
2024/01/20 02:00:00;;;;;;;2.43;2.10;;;;;;;-1.62;64.28;95713.19;5000472;28;20199;-87
2024/01/20 02:02:52;;;;;;;2.57;2.37;;;;;;;-1.70;64.60;95717.91;5000509;28;20219;-87
2024/01/20 02:05:18;;;;;;;2.87;2.30;;;;;;;-1.68;64.86;95746.38;4983628;28;20235;-87
2024/01/20 02:07:48;;;;;;;3.53;2.40;;;;;;;-1.68;64.43;95741.34;4991981;28;20294;-87
2024/01/20 02:10:17;;;;;;;3.03;2.30;;;;;;;-1.75;63.84;95695.53;4991304;28;20212;-87
2024/01/20 02:12:44;;;;;;;2.73;2.10;;;;;;;-1.70;64.17;95696.00;4999713;28;20231;-87
2024/01/20 02:15:23;;;;;;;2.60;2.20;;;;;;;-1.66;63.76;95687.34;4991118;28;20196;-87
2024/01/20 02:17:53;;;;;;;2.30;2.00;;;;;;;-1.66;63.79;95697.44;4992092;28;20199;-87
2024/01/20 02:20:26;;;;;;;2.23;2.00;;;;;;;-1.71;63.42;95680.97;4990903;28;20204;-87
2024/01/20 02:23:15;;;;;;;2.53;2.00;;;;;;;-1.64;63.55;95692.28;4990088;28;20608;-87
2024/01/20 02:25:41;;;;;;;2.90;2.37;;;;;;;-1.57;63.87;95699.38;4985876;28;20207;-87
2024/01/20 02:28:14;;;;;;;3.27;2.10;;;;;;;-1.59;63.51;95678.47;4990365;28;20199;-87
2024/01/20 02:30:50;;;;;;;2.60;2.00;;;;;;;-1.56;63.49;95687.56;4990566;28;20203;-87
2024/01/20 02:36:35;;;;;;;2.00;1.80;;;;;;;-1.62;63.42;95708.13;4970985;28;20283;-87
2024/01/20 02:39:43;;;;;;;2.60;2.40;;;;;;;-1.55;63.34;95719.47;4984597;28;20192;-87
2024/01/20 02:42:20;;;;;;;2.37;2.03;;;;;;;-1.62;63.28;95708.94;4987479;28;20223;-86
2024/01/20 02:44:58;;;;;;;2.73;2.10;;;;;;;-1.68;63.19;95709.34;4990349;28;20218;-87
2024/01/20 02:47:45;;;;;;;2.40;2.07;;;;;;;-1.70;63.57;95722.97;4989954;28;20289;-88
2024/01/20 02:50:24;;;;;;;2.33;2.03;;;;;;;-1.76;64.11;95739.31;4967035;28;20207;-87
2024/01/20 02:53:09;;;;;;;2.83;2.50;;;;;;;-1.70;64.05;95754.06;4991235;28;20223;-88
2024/01/20 02:55:41;;;;;;;2.87;2.30;;;;;;;-1.70;63.67;95731.34;4995758;28;20594;-87
2024/01/20 02:58:13;;;;;;;2.30;2.10;;;;;;;-1.63;63.63;95731.75;5009389;28;20256;-87
2024/01/20 03:00:49;;;;;;;2.37;2.17;;;;;;;-1.62;63.58;95734.19;5008857;28;20195;-87
2024/01/20 03:03:27;;;;;;;2.57;2.33;;;;;;;-1.63;63.19;95726.72;5009343;28;20234;-86
2024/01/20 03:06:02;;;;;;;3.13;2.37;;;;;;;-1.73;63.20;95698.72;4970602;28;20673;-87
2024/01/20 03:08:35;;;;;;;2.33;2.13;;;;;;;-1.85;63.11;95691.94;4975954;28;20233;-87
2024/01/20 03:11:08;;;;;;;2.53;2.30;;;;;;;-1.94;63.64;95703.47;4994127;28;20199;-87
2024/01/20 03:13:44;;;;;;;2.40;2.20;;;;;;;-1.98;63.51;95703.75;4990910;28;20239;-87
2024/01/20 03:16:22;;;;;;;2.10;1.90;;;;;;;-2.06;63.60;95711.78;5005883;28;20202;-87
2024/01/20 03:18:58;;;;;;;2.50;2.10;;;;;;;-2.14;64.01;95724.09;4977411;28;20243;-86
2024/01/20 03:21:36;;;;;;;4.70;2.53;;;;;;;-2.35;64.02;95721.19;5006692;28;20206;-87
2024/01/20 03:24:09;;;;;;;3.47;2.43;;;;;;;-2.55;65.20;95767.78;4994862;28;20599;-88
2024/01/20 03:26:45;;;;;;;2.10;1.90;;;;;;;-2.95;66.22;95801.25;5009655;28;20883;-87
2024/01/20 03:29:14;;;;;;;2.40;2.20;;;;;;;-2.80;66.65;95853.25;4994035;28;20613;-88
2024/01/20 03:31:52;;;;;;;3.50;2.17;;;;;;;-2.57;66.73;95882.16;4999052;23;20598;-89
2024/01/20 03:34:28;;;;;;;3.67;2.20;;;;;;;-2.35;66.30;95872.44;5006940;28;20218;-87
2024/01/20 03:36:57;;;;;;;2.23;2.03;;;;;;;-2.27;65.97;95859.38;5028622;28;20263;-86
2024/01/20 03:39:36;;;;;;;4.40;2.23;;;;;;;-2.22;65.45;95857.38;5028503;28;20202;-87
2024/01/20 03:42:11;;;;;;;2.60;2.40;;;;;;;-2.15;65.25;95836.75;5028125;28;20226;-87
2024/01/20 03:44:45;;;;;;;3.17;2.40;;;;;;;-2.20;64.76;95798.41;5017985;28;20225;-87
2024/01/20 03:47:22;;;;;;;2.87;2.17;;;;;;;-2.32;64.80;95785.75;5010204;28;20214;-86
2024/01/20 03:49:55;;;;;;;3.40;2.37;;;;;;;-2.42;64.84;95793.03;5026663;28;20204;-87
2024/01/20 03:52:34;;;;;;;2.47;2.23;;;;;;;-2.46;64.93;95811.75;5007956;28;20233;-86
2024/01/20 03:55:09;;;;;;;2.30;2.07;;;;;;;-2.47;65.18;95815.19;5021198;28;20731;-86
2024/01/20 03:57:47;;;;;;;3.90;2.73;;;;;;;-2.40;65.33;95830.75;5008690;28;20270;-88
2024/01/20 04:00:30;;;;;;;3.50;2.20;;;;;;;-2.66;65.49;95832.28;5008728;28;20198;-88
2024/01/20 04:03:04;;;;;;;2.90;2.03;;;;;;;-2.66;66.16;95849.94;5007979;28;20230;-88
2024/01/20 04:05:40;;;;;;;3.13;2.50;;;;;;;-2.67;65.74;95856.69;5013412;28;20202;-88
2024/01/20 04:08:13;;;;;;;2.93;2.20;;;;;;;-2.51;65.89;95871.75;5009086;28;20202;-89
2024/01/20 04:10:49;;;;;;;3.27;1.97;;;;;;;-2.37;65.53;95866.69;5019766;28;20233;-89
2024/01/20 04:13:24;;;;;;;2.33;2.00;;;;;;;-2.27;65.22;95855.13;5009476;28;20237;-89
2024/01/20 04:16:00;;;;;;;3.33;1.70;;;;;;;-2.21;64.33;95823.69;4990421;28;20254;-88
2024/01/20 04:18:36;;;;;;;2.57;2.00;;;;;;;-2.23;64.29;95795.25;4996363;28;20203;-87
2024/01/20 04:21:10;;;;;;;2.23;2.03;;;;;;;-2.29;63.97;95783.00;5004223;28;20711;-88
2024/01/20 04:23:43;;;;;;;3.23;1.90;;;;;;;-2.29;63.92;95793.09;5016152;28;20218;-87
2024/01/20 04:26:16;;;;;;;3.23;2.10;;;;;;;-2.29;64.11;95805.69;5035593;28;20217;-89
2024/01/20 04:28:51;;;;;;;3.07;2.00;;;;;;;-2.37;64.16;95802.84;5030278;28;20577;-87
2024/01/20 04:31:25;;;;;;;2.57;2.30;;;;;;;-2.35;64.03;95814.47;4999657;28;20211;-88
2024/01/20 04:33:58;;;;;;;2.20;2.00;;;;;;;-2.34;63.69;95798.44;5003636;28;20201;-88
2024/01/20 04:36:31;;;;;;;4.13;2.40;;;;;;;-2.33;63.64;95786.63;5020188;28;20293;-88
2024/01/20 04:39:06;;;;;;;3.93;2.50;;;;;;;-2.37;63.21;95767.56;5017766;28;20206;-88
2024/01/20 04:41:38;;;;;;;3.23;2.20;;;;;;;-2.35;63.34;95770.78;5016220;28;20209;-88
2024/01/20 04:44:11;;;;;;;3.07;2.20;;;;;;;-2.59;63.17;95760.47;5027765;28;20588;-88
2024/01/20 04:46:48;;;;;;;2.60;2.40;;;;;;;-2.71;63.84;95781.38;5024047;28;20289;-88
2024/01/20 04:49:21;;;;;;;2.30;2.10;;;;;;;-2.69;64.01;95794.69;5032288;28;20194;-88
2024/01/20 04:52:01;;;;;;;3.33;2.13;;;;;;;-2.78;63.59;95789.28;5032233;28;20230;-88
2024/01/20 04:54:31;;;;;;;2.80;2.23;;;;;;;-2.72;63.95;95817.56;5023431;28;20592;-88
2024/01/20 04:57:03;;;;;;;3.53;2.50;;;;;;;-2.64;64.19;95831.31;5012441;28;20285;-87
2024/01/20 04:59:39;;;;;;;4.90;2.23;;;;;;;-2.65;63.91;95826.34;5029017;28;20194;-88
2024/01/20 05:02:16;;;;;;;1.90;1.70;;;;;;;-2.71;64.10;95830.06;5016957;28;20228;-88
2024/01/20 05:04:45;;;;;;;2.40;2.20;;;;;;;-2.81;64.22;95822.22;5013852;28;20229;-88
2024/01/20 05:07:21;;;;;;;2.33;2.00;;;;;;;-2.86;64.44;95841.81;5012356;28;20206;-88
2024/01/20 05:10:02;;;;;;;2.13;1.93;;;;;;;-2.79;64.38;95854.88;5031787;28;20205;-87
2024/01/20 05:12:36;;;;;;;3.20;2.20;;;;;;;-2.74;64.14;95852.09;5009409;28;20231;-87
2024/01/20 05:15:12;;;;;;;2.43;2.23;;;;;;;-2.64;64.24;95859.03;5012812;28;20202;-88
2024/01/20 05:17:50;;;;;;;2.20;1.97;;;;;;;-2.66;64.06;95855.78;5012185;28;20198;-89
2024/01/20 05:20:25;;;;;;;2.90;2.13;;;;;;;-2.66;64.14;95853.25;5012432;28;20207;-88
2024/01/20 05:22:54;;;;;;;2.80;2.20;;;;;;;-2.73;64.02;95849.50;5020593;28;20225;-88
2024/01/20 05:25:29;;;;;;;2.50;2.30;;;;;;;-2.72;63.93;95862.91;5016235;28;20222;-88
2024/01/20 05:27:58;;;;;;;4.07;2.70;;;;;;;-2.78;64.07;95859.03;5000879;28;20245;-87
2024/01/20 05:30:40;;;;;;;3.37;2.30;;;;;;;-2.76;63.82;95857.22;5012016;28;20199;-87
2024/01/20 05:33:17;;;;;;;4.27;3.00;;;;;;;-2.78;64.11;95851.47;5011887;28;20312;-88
2024/01/20 05:35:52;;;;;;;5.63;3.33;;;;;;;-2.83;63.82;95849.19;5030072;28;20213;-88
2024/01/20 05:38:42;;;;;;;4.53;3.50;;;;;;;-2.80;63.93;95860.81;5031246;28;20231;-88
2024/01/20 05:41:09;;;;;;;5.00;3.20;;;;;;;-2.84;63.66;95847.59;5027556;28;20209;-88
2024/01/20 05:43:41;;;;;;;4.50;3.40;;;;;;;-2.86;63.96;95853.59;5002267;28;20230;-87
2024/01/20 05:46:07;;;;;;;5.00;3.20;;;;;;;-2.83;63.73;95850.91;5031497;28;20212;-87
2024/01/20 05:48:45;;;;;;;3.67;2.90;;;;;;;-2.86;63.50;95854.41;5032001;28;20204;-88
2024/01/20 05:51:12;;;;;;;4.20;3.07;;;;;;;-2.85;63.64;95871.16;5030854;28;20221;-87
2024/01/20 05:53:39;;;;;;;4.90;3.27;;;;;;;-2.87;63.91;95880.50;5028460;28;20203;-87
2024/01/20 05:56:08;;;;;;;3.63;3.03;;;;;;;-2.83;64.13;95889.50;5012574;28;20199;-88
2024/01/20 05:58:44;;;;;;;3.93;3.20;;;;;;;-2.88;63.61;95883.91;5011778;28;20203;-88
2024/01/20 06:01:19;;;;;;;5.60;3.53;;;;;;;-3.11;63.84;95871.84;5011948;28;20198;-88
2024/01/20 06:03:56;;;;;;;3.47;3.03;;;;;;;-3.08;64.23;95889.31;5001566;28;20194;-87
2024/01/20 06:06:29;;;;;;;3.97;3.30;;;;;;;-3.12;63.93;95895.41;5031841;28;20194;-88
2024/01/20 06:08:55;;;;;;;5.73;3.60;;;;;;;-3.06;63.84;95902.59;5032267;28;20209;-86
2024/01/20 06:11:36;;;;;;;3.70;3.00;;;;;;;-3.03;63.84;95886.50;5023102;28;20199;-87
2024/01/20 06:14:05;;;;;;;3.83;3.23;;;;;;;-2.97;63.83;95888.69;5013144;28;20222;-87
2024/01/20 06:16:43;;;;;;;4.43;3.47;;;;;;;-2.97;63.68;95876.91;5025046;28;20281;-87
2024/01/20 06:19:20;;;;;;;6.13;3.50;;;;;;;-3.00;63.70;95869.50;5033662;28;20197;-87
2024/01/20 06:21:52;;;;;;;3.90;2.73;;;;;;;-3.05;63.95;95871.47;5018626;28;20226;-89
2024/01/20 06:24:33;;;;;;;3.77;2.97;;;;;;;-2.70;73.85;96367.63;5000052;28;20330;-88
2024/01/20 06:27:03;;;;;;;4.30;3.30;;;;;;;-2.66;65.94;96026.31;4991304;28;20214;-88
2024/01/20 06:29:40;;;;;;;5.20;3.40;;;;;;;-2.75;64.96;95926.88;5031408;28;20206;-88
2024/01/20 06:32:12;;;;;;;6.07;3.13;;;;;;;-2.46;86.84;96590.75;5031532;28;20304;-88
2024/01/20 06:34:52;;;;;;;3.40;2.93;;;;;;;-2.47;68.37;96120.19;5018559;28;20195;-86
2024/01/20 06:37:24;;;;;;;6.10;3.03;;;;;;;-2.54;66.62;95996.22;5009929;28;20209;-86
2024/01/20 06:40:00;;;;;;;4.03;2.93;;;;;;;-2.69;66.05;95948.41;5017213;28;20209;-86
2024/01/20 06:42:32;;;;;;;3.90;3.00;;;;;;;-2.85;66.17;95934.13;5029264;28;20911;-87
2024/01/20 06:45:10;;;;;;;5.43;3.00;;;;;;;-2.87;66.13;95940.97;5018995;28;20217;-86
2024/01/20 06:47:43;;;;;;;5.33;3.10;;;;;;;-2.86;66.08;95944.28;5019885;28;20668;-86
2024/01/20 06:50:17;;;;;;;10.10;3.00;;;;;;;-2.88;65.89;95946.09;5014368;28;20354;-88
2024/01/20 06:52:52;;;;;;;4.37;3.13;;;;;;;-2.88;66.08;95954.44;5010880;28;20227;-88
2024/01/20 06:55:28;;;;;;;5.10;3.00;;;;;;;-2.85;65.42;95945.91;5021381;28;20194;-88
2024/01/20 06:58:00;;;;;;;4.47;3.13;;;;;;;-2.82;65.56;95933.16;4990004;28;20297;-88
2024/01/20 07:00:37;;;;;;;5.30;3.40;;;;;;;-2.87;65.27;95930.88;4989252;28;20282;-89
2024/01/20 07:03:09;;;;;;;7.33;2.63;;;;;;;-2.88;65.58;95936.81;5010062;28;20242;-88
2024/01/20 07:05:37;;;;;;;3.90;3.13;;;;;;;-2.82;65.13;95936.47;5024453;28;20225;-88
2024/01/20 07:08:11;;;;;;;5.07;3.53;;;;;;;-2.72;65.11;95933.47;4996792;28;20206;-88
2024/01/20 07:10:59;;;;;;;4.60;3.30;;;;;;;-2.71;64.95;95914.91;5004515;28;20218;-88
2024/01/20 07:13:25;;;;;;;5.17;3.60;;;;;;;-2.72;64.97;95916.63;5002163;28;20227;-88
2024/01/20 07:15:53;;;;;;;5.43;3.37;;;;;;;-2.67;65.00;95927.22;5015497;28;20199;-87
2024/01/20 07:18:40;;;;;;;4.63;3.60;;;;;;;-2.62;64.65;95930.31;5025355;28;20687;-88
2024/01/20 07:21:20;;;;;;;4.67;3.60;;;;;;;-2.61;64.53;95913.47;5027162;28;20202;-88
2024/01/20 07:23:55;;;;;;;4.53;3.30;;;;;;;-2.64;64.42;95888.44;5012102;28;20301;-87
2024/01/20 07:26:27;;;;;;;3.90;3.43;;;;;;;-2.63;64.59;95905.19;5029767;28;20228;-86
2024/01/20 07:32:00;;;;;;;4.53;3.43;;;;;;;-2.48;64.35;95939.59;5027241;28;20229;-86
2024/01/20 07:34:47;;;;;;;5.83;4.27;;;;;;;-2.25;64.21;95923.94;5018444;28;20218;-88
2024/01/20 07:37:22;;;;;;;4.93;4.27;;;;;;;-2.17;63.15;95894.03;5010734;28;20198;-85
2024/01/20 07:39:48;;;;;;;5.80;5.20;;;;;;;-1.82;62.23;95849.03;5027325;28;20193;-86
2024/01/20 07:42:17;;;;;;;7.07;5.17;;;;;;;-1.60;61.11;95782.88;5007962;28;20219;-87
2024/01/20 07:45:02;;;;;;;4.67;3.80;;;;;;;-1.32;60.43;95761.69;5008136;28;20233;-86
2024/01/20 07:47:28;;;;;;;4.60;3.03;;;;;;;-1.10;59.42;95711.38;5010877;28;20741;-86
2024/01/20 07:50:09;;;;;;;4.40;3.00;;;;;;;-0.88;58.90;95677.09;5006723;28;20211;-86
2024/01/20 07:52:43;;;;;;;4.33;2.77;;;;;;;-0.72;58.21;95644.78;5007167;28;20214;-86
2024/01/20 07:55:21;;;;;;;4.10;2.83;;;;;;;-0.54;57.67;95625.00;5007920;28;20203;-86
2024/01/20 07:57:54;;;;;;;5.30;3.10;;;;;;;-0.52;57.23;95596.16;5015911;28;20200;-86
2024/01/20 08:00:31;;;;;;;4.80;2.93;;;;;;;-0.57;57.85;95603.25;5013713;28;20584;-86
2024/01/20 08:03:07;;;;;;;3.20;2.90;;;;;;;-0.60;57.64;95611.09;5007088;28;20733;-86
2024/01/20 08:05:43;;;;;;;4.10;3.00;;;;;;;-0.53;57.75;95621.56;5008081;28;20230;-86
2024/01/20 08:08:16;;;;;;;4.07;2.87;;;;;;;-0.54;57.41;95607.28;5023962;28;20202;-86
2024/01/20 08:11:07;;;;;;;5.03;3.20;;;;;;;-0.60;57.94;95633.84;5004864;28;20218;-86
2024/01/20 08:13:34;;;;;;;5.70;3.50;;;;;;;-0.51;57.46;95625.59;5001763;28;20249;-86
2024/01/20 08:16:16;;;;;;;8.30;6.77;;;;;;;-0.49;57.45;95623.75;5003202;28;20207;-86
2024/01/20 08:18:45;;;;;;;5.83;5.33;;;;;;;-0.36;57.79;95656.56;5025736;28;20204;-85
2024/01/20 08:21:22;;;;;;;5.70;4.07;;;;;;;-0.17;57.23;95644.22;5022893;28;20195;-86
2024/01/20 08:24:03;;;;;;;5.30;4.17;;;;;;;-0.19;56.38;95607.34;5012527;28;20199;-86
2024/01/20 08:26:32;;;;;;;4.70;2.90;;;;;;;0.02;56.65;95618.41;5004025;28;20252;-86
2024/01/20 08:28:59;;;;;;;4.20;3.40;;;;;;;0.33;56.36;95622.84;5012550;28;20266;-86
2024/01/20 08:31:47;;;;;;;6.93;4.63;;;;;;;0.57;56.16;95609.31;5011931;28;20214;-86
2024/01/20 08:34:13;;;;;;;7.27;4.10;;;;;;;0.99;55.43;95584.94;5012112;28;20199;-86
2024/01/20 08:36:40;;;;;;;5.87;4.13;;;;;;;1.24;54.69;95551.69;5012321;28;20206;-87
2024/01/20 08:39:08;;;;;;;6.87;3.57;;;;;;;1.50;53.85;95510.78;5017598;28;20214;-86
2024/01/20 08:41:44;;;;;;;;;;;;;;;;;;;;;
2024/01/20 08:44:11;;;;;;;4.20;3.53;;;;;;;1.96;52.76;95449.47;5021708;28;20195;-85
2024/01/20 08:46:37;;;;;;;3.13;2.83;;;;;;;2.20;51.94;95414.41;5012220;28;20230;-86
2024/01/20 08:49:04;;;;;;;5.80;4.10;;;;;;;2.01;51.02;95344.06;5010499;28;20203;-86
2024/01/20 08:51:30;;;;;;;5.40;3.87;;;;;;;2.15;51.54;95380.97;5010049;28;20582;-85
2024/01/20 08:54:10;;;;;;;;;;;;;;;;;;;;;
2024/01/20 08:56:38;;;;;;;6.63;3.93;;;;;;;2.27;51.41;95384.22;5019219;28;20695;-86
2024/01/20 08:59:05;;;;;;;3.83;3.43;;;;;;;2.48;51.17;95386.66;5009822;28;20198;-86
2024/01/20 09:04:14;;;;;;;5.90;3.10;;;;;;;2.75;50.82;95387.63;5004921;28;20226;-85
2024/01/20 09:06:41;;;;;;;3.47;3.10;;;;;;;2.89;50.34;95372.88;5007472;28;20219;-86
2024/01/20 09:09:14;;;;;;;4.93;3.90;;;;;;;2.93;50.10;95354.69;5006570;28;20203;-86
2024/01/20 09:11:52;;;;;;;6.73;4.13;;;;;;;2.87;52.01;95527.34;5007260;28;20222;-86
2024/01/20 09:14:19;;;;;;;5.00;3.40;;;;;;;2.89;50.34;95406.75;5010506;28;20205;-86
2024/01/20 09:16:45;;;;;;;3.53;3.03;;;;;;;2.95;50.06;95373.16;5011005;28;20191;-86
2024/01/20 09:19:12;;;;;;;3.37;3.07;;;;;;;2.96;49.95;95358.72;5010673;28;20610;-86
2024/01/20 09:21:38;;;;;;;3.80;3.40;;;;;;;3.07;50.12;95364.47;5011841;28;20715;-86
2024/01/20 09:26:51;;;;;;;3.67;3.10;;;;;;;3.43;49.95;95380.72;5006833;28;20630;-86
2024/01/20 09:29:17;;;;;;;4.87;3.37;;;;;;;3.58;49.27;95352.28;5011171;28;20203;-86
2024/01/20 09:31:43;;;;;;;4.47;3.50;;;;;;;3.64;48.89;95327.09;5010458;28;20242;-86
2024/01/20 09:34:20;;;;;;;4.47;3.47;;;;;;;3.80;49.01;95334.91;5010932;28;20195;-86
2024/01/20 09:36:47;;;;;;;4.00;3.57;;;;;;;3.93;48.44;95310.84;5009810;28;20591;-86
2024/01/20 09:39:13;;;;;;;4.00;3.60;;;;;;;4.08;48.58;95310.22;5011061;28;20202;-86
2024/01/20 09:41:41;;;;;;;4.33;3.70;;;;;;;4.61;54.87;95806.66;5010338;28;20251;-87
2024/01/20 09:44:33;;;;;;;4.07;3.37;;;;;;;4.55;49.14;95426.50;5008210;28;20198;-86
2024/01/20 09:47:23;;;;;;;5.40;3.63;;;;;;;3.80;49.27;95350.19;5008794;28;20235;-87
2024/01/20 09:49:49;;;;;;;3.97;3.40;;;;;;;3.69;50.61;95420.84;5006021;28;20669;-86
2024/01/20 09:52:16;;;;;;;4.17;3.70;;;;;;;3.88;51.02;95474.25;5008901;28;20663;-86
2024/01/20 09:55:18;;;;;;;4.70;4.20;;;;;;;4.01;50.65;95441.66;5008381;28;20226;-87
2024/01/20 09:57:46;;;;;;;7.10;6.03;;;;;;;3.98;52.02;95497.97;5009259;28;20195;-84
2024/01/20 10:00:22;;;;;;;10.47;7.37;;;;;;;3.68;50.25;95452.31;5012655;28;20222;-85
2024/01/20 10:02:49;;;;;;;7.30;5.70;;;;;;;3.73;50.68;95430.63;5008590;28;20218;-86
2024/01/20 10:05:39;;;;;;;5.47;4.73;;;;;;;4.02;49.96;95427.97;5007804;28;20780;-86
2024/01/20 10:08:05;;;;;;;4.57;4.17;;;;;;;3.68;50.10;95406.50;5008706;28;20191;-85
2024/01/20 10:10:32;;;;;;;4.40;4.00;;;;;;;3.60;50.30;95425.03;5008306;28;20200;-86
2024/01/20 10:13:02;;;;;;;4.30;3.87;;;;;;;3.83;50.31;95438.25;5008700;28;20218;-85
2024/01/20 10:15:40;;;;;;;5.67;4.00;;;;;;;4.09;49.26;95410.38;5009309;28;20753;-85
2024/01/20 10:18:21;;;;;;;5.37;4.00;;;;;;;3.99;48.55;95328.91;5010703;28;20210;-85
2024/01/20 10:21:06;;;;;;;6.50;3.90;;;;;;;4.18;48.63;95342.50;5009192;28;20230;-85
2024/01/20 10:24:14;;;;;;;4.97;3.90;;;;;;;4.39;49.11;95381.25;5009800;28;20221;-86
2024/01/20 10:27:03;;;;;;;5.40;3.70;;;;;;;4.70;49.15;95389.38;5009214;28;20214;-85
2024/01/20 10:29:30;;;;;;;6.00;4.57;;;;;;;4.38;47.26;95250.47;5012244;28;20561;-87
2024/01/20 10:32:10;;;;;;;;;;;;;;;;;;;;;
2024/01/20 10:34:46;;;;;;;5.53;4.67;;;;;;;4.39;48.42;95320.09;5009350;28;20203;-87
2024/01/20 10:37:46;;;;;;;4.70;3.80;;;;;;;4.35;47.02;95237.22;5009374;28;20268;-87
2024/01/20 10:40:30;;;;;;;6.30;3.90;;;;;;;4.17;46.97;95221.94;5010423;28;20201;-88
2024/01/20 10:43:23;;;;;;;4.43;3.70;;;;;;;4.34;47.60;95266.22;5008324;28;20214;-86
2024/01/20 10:46:18;;;;;;;5.23;3.30;;;;;;;4.53;46.87;95242.31;5009582;28;20211;-86
2024/01/20 10:49:20;;;;;;;5.03;2.93;;;;;;;4.45;45.37;95138.53;5009146;28;20210;-87
2024/01/20 10:51:47;;;;;;;3.47;3.17;;;;;;;4.38;45.02;95132.44;4988116;28;20348;-87
2024/01/20 10:54:20;;;;;;;5.10;3.37;;;;;;;4.25;45.89;95162.59;5009273;28;20191;-87
2024/01/20 10:57:04;;;;;;;4.43;3.37;;;;;;;4.09;48.94;95349.22;5000005;28;20207;-87
2024/01/20 11:02:28;;;;;;;7.47;4.10;;;;;;;4.16;48.27;95322.25;4997289;28;20298;-85
2024/01/20 11:05:26;;;;;;;11.60;5.07;;;;;;;4.44;49.42;95400.25;4999763;28;20210;-85
2024/01/20 11:08:13;;;;;;;7.10;5.10;;;;;;;4.64;49.86;95436.63;4998736;28;20206;-86
2024/01/20 11:10:49;;;;;;;13.30;7.97;;;;;;;4.88;49.94;95466.69;4998987;28;20213;-85
2024/01/20 11:13:47;;;;;;;6.10;4.73;;;;;;;4.68;49.11;95421.84;4997944;28;20262;-85
2024/01/20 11:16:55;;;;;;;;;;;;;;;;;;;;;
2024/01/20 11:19:32;;;;;;;3.13;2.77;;;;;;;4.52;44.61;95142.09;4997408;28;20194;-85
2024/01/20 11:22:37;;;;;;;9.77;3.40;;;;;;;4.33;45.64;95157.56;4995447;28;20218;-85
2024/01/20 11:31:19;;;;;;;4.37;3.70;;;;;;;3.98;45.14;95100.66;4996240;28;20622;-86
2024/01/20 11:34:13;;;;;;;6.47;3.50;;;;;;;4.18;45.27;95133.59;4997080;28;20262;-85
2024/01/20 11:36:40;;;;;;;5.53;2.87;;;;;;;4.13;43.97;95050.75;4998317;28;21720;-86
2024/01/20 11:42:26;;;;;;;4.23;3.17;;;;;;;3.79;44.56;95080.44;4994753;28;20230;-85
2024/01/20 11:44:53;;;;;;;5.03;3.60;;;;;;;3.96;44.23;95077.06;4998382;28;20573;-86
2024/01/20 11:47:19;;;;;;;3.50;2.53;;;;;;;4.28;43.11;95029.81;4998528;28;20262;-86
2024/01/20 11:49:46;;;;;;;3.63;2.67;;;;;;;4.16;43.20;94996.16;4998858;28;20207;-86
2024/01/20 11:52:40;;;;;;;8.27;4.20;;;;;;;4.11;43.21;95001.72;4998341;28;20221;-86
2024/01/20 11:55:27;;;;;;;6.43;2.90;;;;;;;4.35;42.63;94990.03;4996603;28;20203;-85
2024/01/20 11:58:04;;;;;;;2.67;2.40;;;;;;;4.34;42.27;94968.84;4996937;28;20743;-86
2024/01/20 12:00:47;;;;;;;4.17;2.97;;;;;;;4.37;45.07;95190.25;5000580;28;20210;-85
2024/01/20 12:03:13;;;;;;;8.80;5.57;;;;;;;4.28;45.01;95147.03;5006155;28;20218;-86
2024/01/20 12:05:40;;;;;;;14.90;3.50;;;;;;;4.50;43.93;95109.09;5006173;28;20203;-85
2024/01/20 12:08:07;;;;;;;4.07;2.80;;;;;;;4.62;42.69;95022.19;5006286;28;20198;-85
2024/01/20 12:10:57;;;;;;;6.60;3.50;;;;;;;4.43;43.32;95038.47;5006086;28;20211;-85
2024/01/20 12:17:21;;;;;;;3.50;3.20;;;;;;;4.65;43.18;95044.78;4905395;29;20358;-86
2024/01/20 12:19:55;;;;;;;4.37;2.70;;;;;;;4.86;46.06;95231.38;4965243;28;20201;-84
2024/01/20 12:25:03;;;;;;;5.07;2.97;;;;;;;5.07;43.58;95096.59;4982598;28;20207;-88
2024/01/20 12:27:31;;;;;;;5.03;2.80;;;;;;;5.16;42.21;95008.94;5006867;28;20222;-86
2024/01/20 12:33:25;;;;;;;3.47;2.77;;;;;;;5.52;42.34;94985.66;5022874;23;20241;-86
2024/01/20 12:35:51;;;;;;;8.67;3.10;;;;;;;5.54;42.53;94993.97;5022179;28;20209;-85
2024/01/20 12:40:58;;;;;;;7.33;2.63;;;;;;;5.51;41.15;94899.81;4966030;28;20205;-88
2024/01/20 12:43:53;;;;;;;7.27;3.20;;;;;;;5.52;41.62;94926.94;4949897;28;20323;-86
2024/01/20 12:46:20;;;;;;;8.83;3.20;;;;;;;5.82;42.13;94967.09;4909734;29;20236;-87
2024/01/20 12:49:07;;;;;;;5.47;3.10;;;;;;;5.77;40.17;94862.06;4945888;29;20219;-89
2024/01/20 12:51:34;;;;;;;8.53;4.00;;;;;;;5.69;41.19;94885.09;5013501;28;20225;-88
2024/01/20 12:54:14;;;;;;;9.17;3.37;;;;;;;5.55;41.32;94904.44;5013256;28;20196;-86
2024/01/20 12:56:50;;;;;;;5.73;2.90;;;;;;;5.86;42.10;94977.81;5013604;28;20205;-85
2024/01/20 12:59:27;;;;;;;5.30;3.23;;;;;;;6.19;41.52;94945.31;5015531;28;20204;-87